Time;durP1;ratioP1;P1;durP2;ratioP2;P2;SDS_P1;SDS_P2;PMS_P1;PMS_P2;Temp;Humidity;BMP_temperature;BMP_pressure;BME280_temperature;BME280_humidity;BME280_pressure;Samples;Min_cycle;Max_cycle;Signal;HPM_P1;HPM_P2
2024/04/15 00:01:09;;;;;;;22.90;3.15;;;;;;;5.97;100.00;100643.53;5398377;26;20722;-73
2024/04/15 00:03:35;;;;;;;20.55;3.78;;;;;;;6.03;100.00;100664.19;5425437;26;20003;-72
2024/04/15 00:06:00;;;;;;;23.60;3.63;;;;;;;5.84;100.00;100628.84;5387918;26;20010;-73
2024/04/15 00:08:25;;;;;;;17.33;3.50;;;;;;;6.01;100.00;100653.66;5359131;26;20002;-72
2024/04/15 00:10:51;;;;;;;18.20;3.20;;;;;;;6.06;100.00;100667.34;5356880;26;19996;-72
2024/04/15 00:13:17;;;;;;;18.02;3.40;;;;;;;6.05;100.00;100665.66;5355796;26;20011;-72
2024/04/15 00:15:42;;;;;;;18.30;3.33;;;;;;;5.89;100.00;100642.50;5385405;26;20000;-71
2024/04/15 00:18:08;;;;;;;25.80;3.25;;;;;;;6.00;100.00;100657.34;5384655;26;19992;-72
2024/04/15 00:20:34;;;;;;;25.35;3.85;;;;;;;6.02;100.00;100658.00;5417941;26;20042;-72
2024/04/15 00:23:01;;;;;;;16.08;2.90;;;;;;;6.01;100.00;100659.00;5418495;26;20495;-72
2024/04/15 00:25:27;;;;;;;17.38;3.13;;;;;;;5.96;100.00;100653.38;5357527;26;20709;-72
2024/04/15 00:27:55;;;;;;;13.27;3.08;;;;;;;5.96;100.00;100644.50;5358722;26;19987;-72
2024/04/15 00:30:20;;;;;;;16.67;2.75;;;;;;;6.09;100.00;100652.78;5386828;26;20500;-72
2024/04/15 00:32:45;;;;;;;18.25;2.97;;;;;;;6.08;100.00;100654.63;5384836;26;19996;-72
2024/04/15 00:35:11;;;;;;;18.70;3.85;;;;;;;6.06;100.00;100647.78;5414815;26;20450;-72
2024/04/15 00:37:36;;;;;;;21.92;3.17;;;;;;;6.08;100.00;100638.59;5384541;26;19991;-72
2024/04/15 00:40:04;;;;;;;18.15;3.17;;;;;;;5.96;100.00;100615.97;5354482;26;19996;-71
2024/04/15 00:42:31;;;;;;;18.73;3.03;;;;;;;6.11;100.00;100637.44;5355952;26;20495;-72
2024/04/15 00:44:56;;;;;;;16.70;3.03;;;;;;;6.10;100.00;100641.13;5384413;26;19999;-74
2024/04/15 00:47:22;;;;;;;13.68;3.10;;;;;;;6.08;100.00;100635.94;5415596;26;19996;-72
2024/04/15 00:49:47;;;;;;;13.32;2.42;;;;;;;5.94;100.00;100626.00;5383542;26;19996;-72
2024/04/15 00:52:14;;;;;;;21.15;3.13;;;;;;;5.81;100.00;100599.81;5386503;26;19996;-71
2024/04/15 00:54:42;;;;;;;24.92;3.72;;;;;;;5.99;100.00;100636.16;5405754;26;20553;-71
2024/04/15 00:57:08;;;;;;;17.80;3.25;;;;;;;5.94;100.00;100634.00;5405561;26;20001;-71
2024/04/15 00:59:37;;;;;;;21.10;3.47;;;;;;;5.95;100.00;100643.66;5370190;26;20439;-72
2024/04/15 01:02:03;;;;;;;17.25;3.15;;;;;;;5.78;100.00;100615.34;5406230;26;20007;-72
2024/04/15 01:04:29;;;;;;;21.75;4.32;;;;;;;5.87;100.00;100636.50;5406188;26;20000;-72
2024/04/15 01:06:55;;;;;;;22.83;3.72;;;;;;;5.76;100.00;100614.66;5370461;26;20459;-72
2024/04/15 01:09:20;;;;;;;20.38;3.50;;;;;;;5.85;100.00;100632.34;5377446;26;19993;-72
2024/04/15 01:11:46;;;;;;;16.27;2.65;;;;;;;5.83;100.00;100642.38;5377394;26;20069;-72
2024/04/15 01:14:11;;;;;;;20.75;3.20;;;;;;;5.84;100.00;100652.03;5407185;26;20008;-72
2024/04/15 01:16:38;;;;;;;18.90;3.13;;;;;;;5.88;100.00;100637.31;5370968;26;20015;-72
2024/04/15 01:19:04;;;;;;;20.00;3.03;;;;;;;5.79;100.00;100622.34;5378030;26;20003;-72
2024/04/15 01:21:29;;;;;;;24.63;3.60;;;;;;;5.86;100.00;100628.66;5376731;26;20406;-72
2024/04/15 01:23:57;;;;;;;19.80;3.03;;;;;;;5.73;100.00;100623.88;5412340;26;19993;-72
2024/04/15 01:26:22;;;;;;;17.70;2.83;;;;;;;5.82;100.00;100638.84;5408058;26;20073;-72
2024/04/15 01:28:47;;;;;;;20.60;3.00;;;;;;;5.75;100.00;100621.03;5378724;26;20000;-72
2024/04/15 01:31:13;;;;;;;18.23;2.80;;;;;;;5.76;100.00;100628.88;5371401;26;20007;-72
2024/04/15 01:33:38;;;;;;;21.38;3.67;;;;;;;5.72;100.00;100638.22;5406700;26;20012;-72
2024/04/15 01:36:04;;;;;;;14.65;2.35;;;;;;;5.74;100.00;100627.38;5436133;26;20015;-72
2024/04/15 01:38:31;;;;;;;17.88;3.38;;;;;;;5.52;100.00;100595.06;5408052;26;19989;-72
2024/04/15 01:40:56;;;;;;;16.92;3.25;;;;;;;5.70;100.00;100624.22;5375598;26;19996;-72
2024/04/15 01:43:21;;;;;;;19.33;3.45;;;;;;;5.73;100.00;100623.03;5411131;26;19993;-72
2024/04/15 01:45:47;;;;;;;19.15;2.88;;;;;;;5.79;100.00;100627.69;5374448;26;19997;-71
2024/04/15 01:48:13;;;;;;;19.55;3.20;;;;;;;5.73;100.00;100612.34;5409867;26;19989;-71
2024/04/15 01:50:38;;;;;;;12.80;2.53;;;;;;;5.72;100.00;100610.69;5373955;26;20007;-71
2024/04/15 01:53:07;;;;;;;14.30;2.67;;;;;;;5.74;100.00;100619.38;5347164;26;20011;-72
2024/04/15 01:55:33;;;;;;;15.30;3.25;;;;;;;5.64;100.00;100584.88;5407870;26;20065;-72
2024/04/15 01:57:59;;;;;;;17.92;2.70;;;;;;;5.72;100.00;100603.50;5411273;26;20008;-72
2024/04/15 02:00:24;;;;;;;11.25;1.98;;;;;;;5.73;100.00;100601.66;5380077;26;20772;-71
2024/04/15 02:02:50;;;;;;;10.48;2.25;;;;;;;5.78;100.00;100602.81;5382108;26;20077;-72
2024/04/15 02:05:15;;;;;;;15.90;2.90;;;;;;;5.77;100.00;100609.16;5409492;26;20335;-72
2024/04/15 02:07:40;;;;;;;19.80;2.83;;;;;;;5.71;100.00;100583.16;5379571;26;20431;-72
2024/04/15 02:10:08;;;;;;;18.38;2.83;;;;;;;5.82;100.00;100597.97;5373349;26;20003;-73
2024/04/15 02:12:33;;;;;;;15.70;2.35;;;;;;;5.74;100.00;100584.66;5379785;26;19996;-72
2024/04/15 02:14:58;;;;;;;17.23;3.75;;;;;;;5.76;100.00;100583.50;5415044;26;20453;-72
2024/04/15 02:17:24;;;;;;;21.98;2.97;;;;;;;5.74;100.00;100587.34;5356434;26;20008;-75
2024/04/15 02:19:49;;;;;;;20.30;3.10;;;;;;;5.25;100.00;100502.94;5382237;26;20335;-72
2024/04/15 02:22:15;;;;;;;15.27;2.72;;;;;;;5.80;100.00;100591.97;5412697;26;20003;-72
2024/04/15 02:24:40;;;;;;;13.35;2.08;;;;;;;5.82;100.00;100590.78;5410669;26;20946;-71
2024/04/15 02:27:05;;;;;;;15.43;2.10;;;;;;;5.80;100.00;100587.47;5409218;26;19996;-72
2024/04/15 02:29:31;;;;;;;10.90;2.38;;;;;;;5.77;100.00;100590.47;5350863;26;20008;-73
2024/04/15 02:31:56;;;;;;;12.30;2.63;;;;;;;5.67;100.00;100570.34;5374730;26;20094;-72
2024/04/15 02:34:22;;;;;;;17.15;2.53;;;;;;;5.75;100.00;100595.16;5380181;26;20008;-72
2024/04/15 02:36:47;;;;;;;18.40;3.20;;;;;;;5.77;100.00;100579.81;5372289;26;20344;-72
2024/04/15 02:39:13;;;;;;;12.88;2.70;;;;;;;5.72;100.00;100559.97;5379336;26;19992;-72
2024/04/15 02:41:38;;;;;;;13.02;2.60;;;;;;;5.69;100.00;100569.16;5372913;26;20351;-72
2024/04/15 02:44:04;;;;;;;15.00;3.17;;;;;;;5.74;100.00;100576.66;5377757;26;20061;-71
2024/04/15 02:46:30;;;;;;;14.57;2.00;;;;;;;5.69;100.00;100557.63;5377819;26;20011;-71
2024/04/15 02:48:55;;;;;;;10.27;2.28;;;;;;;5.80;100.00;100557.28;5408929;26;20440;-72
2024/04/15 02:51:21;;;;;;;20.10;3.08;;;;;;;5.63;100.00;100533.31;5371526;26;20003;-71
2024/04/15 02:53:46;;;;;;;15.77;2.42;;;;;;;5.73;100.00;100561.63;5408722;26;20069;-72
2024/04/15 02:56:12;;;;;;;17.73;3.00;;;;;;;5.45;100.00;100519.38;5372093;26;19993;-72
2024/04/15 02:58:37;;;;;;;17.33;2.95;;;;;;;5.65;100.00;100562.50;5408366;26;19992;-72
2024/04/15 03:01:03;;;;;;;8.95;2.03;;;;;;;5.63;100.00;100551.19;5372839;26;20378;-72
2024/04/15 03:03:28;;;;;;;9.10;2.28;;;;;;;5.62;100.00;100558.31;5371737;26;20470;-73
2024/04/15 03:05:53;;;;;;;11.70;2.00;;;;;;;5.60;100.00;100535.50;5408222;26;19997;-73
2024/04/15 03:08:19;;;;;;;10.73;2.10;;;;;;;5.64;100.00;100552.84;5383410;26;20000;-72
2024/04/15 03:10:44;;;;;;;11.35;2.20;;;;;;;5.61;100.00;100559.34;5418689;26;20065;-72
2024/04/15 03:13:10;;;;;;;14.82;2.13;;;;;;;5.61;100.00;100547.84;5413388;26;20004;-72
2024/04/15 03:15:35;;;;;;;12.60;2.55;;;;;;;5.51;100.00;100540.03;5408619;26;20000;-72
2024/04/15 03:18:02;;;;;;;12.60;2.63;;;;;;;5.60;100.00;100555.03;5408891;26;20008;-72
2024/04/15 03:20:28;;;;;;;14.57;2.60;;;;;;;5.52;100.00;100527.50;5372827;26;20335;-71
2024/04/15 03:22:54;;;;;;;18.55;2.42;;;;;;;5.54;100.00;100531.69;5408648;26;20007;-72
2024/04/15 03:25:22;;;;;;;11.02;2.22;;;;;;;5.48;100.00;100510.19;5371585;26;20024;-72
2024/04/15 03:27:48;;;;;;;14.80;2.60;;;;;;;5.62;100.00;100538.81;5408177;26;20007;-72
2024/04/15 03:30:14;;;;;;;18.17;2.60;;;;;;;5.26;100.00;100487.75;5407719;26;20007;-72
2024/04/15 03:32:39;;;;;;;15.00;2.90;;;;;;;5.54;100.00;100523.69;5407678;26;19997;-72
2024/04/15 03:35:11;;;;;;;16.27;3.25;;;;;;;5.42;100.00;100507.19;5378890;26;19992;-71
2024/04/15 03:37:36;;;;;;;17.63;3.35;;;;;;;5.55;100.00;100519.16;5408134;26;20001;-72
2024/04/15 03:40:03;;;;;;;20.17;3.60;;;;;;;5.54;100.00;100526.34;5372714;26;20003;-72
2024/04/15 03:42:29;;;;;;;12.82;2.67;;;;;;;5.50;100.00;100521.53;5370672;26;20447;-72
2024/04/15 03:44:54;;;;;;;18.13;3.40;;;;;;;5.52;100.00;100530.19;5407464;26;20061;-72
2024/04/15 03:47:20;;;;;;;17.05;2.95;;;;;;;5.35;100.00;100486.72;5407047;26;20003;-72
2024/04/15 03:49:46;;;;;;;15.40;2.90;;;;;;;5.56;100.00;100531.50;5372082;26;20357;-72
2024/04/15 03:52:12;;;;;;;14.27;3.10;;;;;;;5.53;100.00;100518.50;5408211;26;20439;-72
2024/04/15 03:54:38;;;;;;;16.70;2.42;;;;;;;5.51;100.00;100517.84;5378114;26;20008;-72
2024/04/15 03:57:04;;;;;;;17.58;2.58;;;;;;;5.53;100.00;100515.81;5371112;26;20471;-72
2024/04/15 03:59:30;;;;;;;18.40;3.08;;;;;;;5.52;100.00;100520.34;5407881;26;19992;-72
2024/04/15 04:01:55;;;;;;;20.52;2.55;;;;;;;5.52;100.00;100525.66;5406872;26;20011;-72
2024/04/15 04:04:20;;;;;;;16.33;2.40;;;;;;;5.21;100.00;100471.44;5407058;26;20026;-71
2024/04/15 04:06:46;;;;;;;14.18;2.92;;;;;;;5.41;100.00;100505.53;5377912;26;19992;-72
2024/04/15 04:09:11;;;;;;;14.40;2.13;;;;;;;5.49;100.00;100509.19;5378209;26;20004;-72
2024/04/15 04:11:37;;;;;;;15.85;3.33;;;;;;;5.48;100.00;100505.69;5407577;26;20005;-72
2024/04/15 04:14:03;;;;;;;11.32;2.40;;;;;;;5.11;100.00;100448.47;5406827;26;19992;-72
2024/04/15 04:16:28;;;;;;;13.07;2.22;;;;;;;5.57;100.00;100520.66;5371397;26;20069;-72
2024/04/15 04:18:53;;;;;;;18.50;2.38;;;;;;;5.63;100.00;100522.63;5408082;26;19992;-72
2024/04/15 04:21:19;;;;;;;24.65;3.38;;;;;;;5.80;100.00;100515.38;5371748;26;19999;-72
2024/04/15 04:23:44;;;;;;;19.15;2.58;;;;;;;5.98;100.00;100511.63;5379728;26;20004;-73
2024/04/15 04:26:10;;;;;;;20.85;2.33;;;;;;;6.13;100.00;100507.22;5377829;26;19993;-73
2024/04/15 04:28:35;;;;;;;15.02;3.42;;;;;;;6.28;100.00;100507.25;5473062;26;19996;-71
2024/04/15 04:31:02;;;;;;;13.65;2.88;;;;;;;6.33;100.00;100507.56;5421683;26;19996;-73
2024/04/15 04:33:31;;;;;;;15.23;2.35;;;;;;;6.03;100.00;100507.44;5383020;26;19996;-72
2024/04/15 04:35:57;;;;;;;17.50;2.97;;;;;;;5.93;100.00;100503.31;5408738;26;20000;-72
2024/04/15 04:38:23;;;;;;;14.20;2.08;;;;;;;6.28;100.00;100505.41;5408919;26;20050;-71
2024/04/15 04:40:59;;;;;;;13.43;2.38;;;;;;;6.61;100.00;100499.81;5408790;26;20012;-74
2024/04/15 04:43:25;;;;;;;13.13;2.35;;;;;;;7.03;100.00;100493.88;5409595;26;20052;-72
2024/04/15 04:45:50;;;;;;;12.48;2.25;;;;;;;7.19;100.00;100494.72;5469279;26;20001;-72
2024/04/15 04:48:15;;;;;;;16.45;2.88;;;;;;;7.30;100.00;100496.94;5378411;26;20000;-74
2024/04/15 04:50:41;;;;;;;18.00;2.70;;;;;;;7.50;100.00;100502.53;5350722;26;20020;-73
2024/04/15 04:53:07;;;;;;;16.17;2.38;;;;;;;7.19;100.00;100449.25;5408528;26;20008;-73
2024/04/15 04:55:36;;;;;;;6.70;2.08;;;;;;;7.76;100.00;100494.00;5349266;26;19997;-73
2024/04/15 04:58:06;;;;;;;10.15;2.00;;;;;;;7.82;100.00;100485.22;5372519;26;20015;-72
2024/04/15 05:00:31;;;;;;;9.80;2.17;;;;;;;8.26;100.00;100499.47;5372539;26;20000;-72
2024/04/15 05:02:56;;;;;;;12.57;2.50;;;;;;;8.35;100.00;100498.34;5408780;26;20007;-72
2024/04/15 05:05:22;;;;;;;19.33;2.75;;;;;;;8.57;100.00;100502.66;5408927;26;20012;-73
2024/04/15 05:07:47;;;;;;;15.45;2.10;;;;;;;8.54;100.00;100481.59;5409248;26;20392;-72
2024/04/15 05:10:16;;;;;;;14.13;2.67;;;;;;;8.70;100.00;100485.88;5408733;26;20006;-72
2024/04/15 05:12:42;;;;;;;13.50;2.50;;;;;;;8.75;100.00;100494.16;5409984;26;20005;-72
2024/04/15 05:15:08;;;;;;;15.73;2.30;;;;;;;8.89;100.00;100501.28;5381479;26;20485;-72
2024/04/15 05:17:34;;;;;;;13.35;1.98;;;;;;;9.18;100.00;100505.63;5413617;26;20004;-72
2024/04/15 05:19:59;;;;;;;16.88;2.45;;;;;;;8.44;100.00;100492.69;5381500;26;20000;-72
2024/04/15 05:22:25;;;;;;;13.75;2.85;;;;;;;8.51;100.00;100516.03;5414003;26;20015;-72
2024/04/15 05:24:53;;;;;;;19.98;2.92;;;;;;;8.74;100.00;100497.03;5420049;26;20007;-72
2024/04/15 05:27:19;;;;;;;15.90;2.58;;;;;;;8.32;100.00;100483.47;5383421;26;20005;-72
2024/04/15 05:29:44;;;;;;;12.95;2.65;;;;;;;7.29;100.00;100449.78;5414971;26;20071;-72
2024/04/15 05:32:09;;;;;;;17.13;2.58;;;;;;;7.40;100.00;100502.00;5386428;26;20001;-73
2024/04/15 05:34:37;;;;;;;13.75;3.30;;;;;;;7.21;100.00;100500.72;5419719;26;20336;-73
2024/04/15 05:37:03;;;;;;;15.50;2.90;;;;;;;7.13;100.00;100514.19;5376205;26;20011;-73
2024/04/15 05:39:28;;;;;;;17.05;2.60;;;;;;;6.93;100.00;100498.66;5411629;26;20004;-73
2024/04/15 05:41:54;;;;;;;17.98;2.85;;;;;;;6.73;100.00;100476.97;5350908;26;20001;-73
2024/04/15 05:44:20;;;;;;;14.55;2.65;;;;;;;6.86;100.00;100511.13;5374681;26;20015;-72
2024/04/15 05:46:50;;;;;;;19.75;3.03;;;;;;;6.84;100.00;100505.09;5410006;26;20093;-72
2024/04/15 05:49:15;;;;;;;11.05;2.55;;;;;;;6.74;100.00;100499.19;5374382;26;20004;-72
2024/04/15 05:51:41;;;;;;;12.02;2.35;;;;;;;6.66;100.00;100499.28;5374771;26;19996;-72
2024/04/15 05:54:06;;;;;;;13.52;2.67;;;;;;;6.79;100.00;100488.78;5388312;26;19992;-73
2024/04/15 05:56:32;;;;;;;14.20;3.20;;;;;;;7.08;100.00;100504.03;5363209;26;19999;-72
2024/04/15 05:58:57;;;;;;;14.77;2.80;;;;;;;7.25;100.00;100499.31;5367932;26;20010;-72
2024/04/15 06:01:23;;;;;;;12.45;2.63;;;;;;;6.99;100.00;100481.91;5335906;26;20014;-72
2024/04/15 06:03:48;;;;;;;14.80;2.63;;;;;;;7.05;100.00;100507.06;5392901;26;20011;-72
2024/04/15 06:06:14;;;;;;;14.43;2.92;;;;;;;7.09;100.00;100503.03;5391463;26;20069;-72
2024/04/15 06:08:41;;;;;;;12.50;2.53;;;;;;;7.06;100.00;100496.19;5392517;26;20353;-72
2024/04/15 06:11:07;;;;;;;16.08;2.70;;;;;;;7.08;100.00;100501.34;5394521;26;20003;-72
2024/04/15 06:13:32;;;;;;;14.02;2.90;;;;;;;7.09;100.00;100497.69;5362445;26;19996;-73
2024/04/15 06:15:57;;;;;;;17.23;3.67;;;;;;;7.12;100.00;100501.81;5393974;26;19992;-73
2024/04/15 06:18:23;;;;;;;16.20;2.90;;;;;;;7.15;100.00;100496.09;5429790;26;20018;-73
2024/04/15 06:20:48;;;;;;;16.65;2.90;;;;;;;7.00;100.00;100472.03;5433710;26;19995;-73
2024/04/15 06:23:14;;;;;;;16.73;2.78;;;;;;;7.09;100.00;100486.16;5424105;26;19995;-72
2024/04/15 06:25:39;;;;;;;17.15;2.95;;;;;;;7.07;100.00;100483.63;5347853;26;19996;-72
2024/04/15 06:28:05;;;;;;;15.88;3.28;;;;;;;7.08;100.00;100504.03;5423845;26;20132;-73
2024/04/15 06:30:30;;;;;;;17.95;2.72;;;;;;;7.02;100.00;100492.22;5406844;26;20457;-73
2024/04/15 06:32:57;;;;;;;20.33;3.42;;;;;;;6.86;100.00;100481.69;5415751;26;20007;-73
2024/04/15 06:35:22;;;;;;;16.85;3.05;;;;;;;6.87;100.00;100472.66;5373768;26;20004;-73
2024/04/15 06:37:47;;;;;;;18.05;2.70;;;;;;;7.23;100.00;100490.66;5426307;26;20527;-73
2024/04/15 06:40:13;;;;;;;16.10;2.95;;;;;;;7.30;100.00;100487.03;5366558;26;20054;-73
2024/04/15 06:42:40;;;;;;;17.10;2.50;;;;;;;7.57;100.00;100489.25;5394257;26;19998;-73
2024/04/15 06:45:05;;;;;;;15.90;2.55;;;;;;;7.58;100.00;100470.28;5380119;26;19996;-73
2024/04/15 06:47:31;;;;;;;18.90;2.78;;;;;;;7.63;100.00;100483.13;5391828;26;19992;-73
2024/04/15 06:49:56;;;;;;;17.85;3.17;;;;;;;7.80;100.00;100481.88;5423678;26;20000;-73
2024/04/15 06:52:21;;;;;;;13.90;2.55;;;;;;;7.91;100.00;100481.41;5437716;26;20048;-74
2024/04/15 06:54:47;;;;;;;10.73;2.25;;;;;;;7.91;100.00;100460.00;5351208;26;20070;-73
2024/04/15 06:57:13;;;;;;;15.10;2.30;;;;;;;7.92;100.00;100445.56;5411004;26;20475;-73
2024/04/15 06:59:38;;;;;;;8.98;2.22;;;;;;;8.26;100.00;100484.22;5422482;26;19991;-73
2024/04/15 07:02:04;;;;;;;10.80;2.45;;;;;;;8.20;100.00;100479.63;5453365;26;20019;-73
2024/04/15 07:04:29;;;;;;;12.32;2.75;;;;;;;8.19;100.00;100459.22;5394980;26;20018;-73
2024/04/15 07:06:56;;;;;;;16.92;2.45;;;;;;;8.31;100.00;100480.97;5394379;26;19991;-72
2024/04/15 07:09:21;;;;;;;8.60;2.08;;;;;;;8.32;100.00;100477.28;5456269;26;19991;-72
2024/04/15 07:11:47;;;;;;;15.77;2.45;;;;;;;8.33;100.00;100474.38;5427206;26;20006;-71
2024/04/15 07:14:13;;;;;;;12.75;2.35;;;;;;;8.20;100.00;100482.31;5426637;26;19995;-73
2024/04/15 07:16:39;;;;;;;19.05;2.65;;;;;;;8.07;100.00;100474.13;5397869;26;20124;-72
2024/04/15 07:19:04;;;;;;;17.83;2.50;;;;;;;7.92;100.00;100474.22;5397071;26;20527;-72
2024/04/15 07:21:30;;;;;;;14.40;2.55;;;;;;;7.95;100.00;100480.00;5396012;26;19987;-72
2024/04/15 07:23:55;;;;;;;21.48;2.72;;;;;;;8.19;100.00;100486.03;5422912;26;20005;-72
2024/04/15 07:26:21;;;;;;;13.27;2.40;;;;;;;8.25;100.00;100479.91;5396515;26;19986;-72
2024/04/15 07:28:46;;;;;;;11.55;1.98;;;;;;;8.12;100.00;100471.72;5394845;26;20086;-73
2024/04/15 07:31:12;;;;;;;14.43;2.63;;;;;;;7.91;100.00;100476.06;5424301;26;20003;-73
2024/04/15 07:33:37;;;;;;;12.10;2.38;;;;;;;7.62;100.00;100460.91;5394208;26;19995;-72
2024/04/15 07:36:03;;;;;;;13.43;2.10;;;;;;;7.69;100.00;100477.03;5424371;26;20060;-73
2024/04/15 07:38:28;;;;;;;13.43;2.35;;;;;;;7.87;100.00;100469.41;5400534;26;19995;-73
2024/04/15 07:40:57;;;;;;;8.38;1.70;;;;;;;7.91;100.00;100473.38;5438724;26;19991;-74
2024/04/15 07:43:23;;;;;;;10.23;2.10;;;;;;;7.74;100.00;100459.38;5460146;26;20322;-73
2024/04/15 07:45:48;;;;;;;12.35;1.88;;;;;;;7.81;100.00;100472.81;5427446;26;20002;-73
2024/04/15 07:48:15;;;;;;;11.45;1.95;;;;;;;7.81;100.00;100447.91;5427726;26;20035;-73
2024/04/15 07:50:41;;;;;;;10.60;1.95;;;;;;;7.86;100.00;100475.78;5460017;26;20374;-72
2024/04/15 07:53:07;;;;;;;11.18;2.03;;;;;;;7.72;100.00;100477.50;5426102;26;19998;-73
2024/04/15 07:55:32;;;;;;;14.38;2.00;;;;;;;7.63;100.00;100473.25;5397323;26;20092;-73
2024/04/15 07:57:58;;;;;;;15.43;2.30;;;;;;;7.55;100.00;100476.06;5401852;26;20456;-73
2024/04/15 08:00:23;;;;;;;15.18;2.00;;;;;;;7.43;100.00;100478.38;5425170;26;20003;-72
2024/04/15 08:02:49;;;;;;;11.55;2.00;;;;;;;7.26;100.00;100450.16;5427005;26;20044;-73
2024/04/15 08:05:14;;;;;;;8.55;1.80;;;;;;;7.33;100.00;100453.75;5430004;26;19987;-72
2024/04/15 08:07:40;;;;;;;8.82;1.60;;;;;;;7.57;100.00;100481.22;5424988;26;19991;-72
2024/04/15 08:10:05;;;;;;;11.40;1.85;;;;;;;7.86;100.00;100478.47;5463001;26;20041;-72
2024/04/15 08:12:31;;;;;;;10.90;2.13;;;;;;;7.96;100.00;100473.63;5431240;26;20010;-73
2024/04/15 08:14:57;;;;;;;13.88;2.15;;;;;;;7.79;100.00;100466.03;5431841;26;19995;-72
2024/04/15 08:17:23;;;;;;;12.10;1.90;;;;;;;7.79;100.00;100474.06;5462128;26;19988;-73
2024/04/15 08:19:48;;;;;;;14.10;2.08;;;;;;;7.63;100.00;100475.09;5431095;26;20013;-72
2024/04/15 08:22:14;;;;;;;11.20;1.90;;;;;;;7.20;100.00;100443.69;5424537;26;20002;-72
2024/04/15 08:24:39;;;;;;;10.45;2.00;;;;;;;7.05;100.00;100438.34;5459839;26;19995;-72
2024/04/15 08:27:04;;;;;;;15.52;2.08;;;;;;;7.30;100.00;100478.19;5397488;26;19991;-72
2024/04/15 08:29:30;;;;;;;13.38;2.00;;;;;;;7.36;100.00;100469.44;5426245;26;20363;-73
2024/04/15 08:31:55;;;;;;;13.02;1.80;;;;;;;7.30;100.00;100454.09;5409227;26;19987;-73
2024/04/15 08:34:20;;;;;;;12.52;2.60;;;;;;;7.29;100.00;100447.09;5406807;26;20032;-73
2024/04/15 08:36:46;;;;;;;14.80;2.20;;;;;;;7.38;100.00;100458.53;5429238;26;19990;-74
2024/04/15 08:39:12;;;;;;;10.48;1.63;;;;;;;7.31;100.00;100447.72;5396093;26;20006;-72
2024/04/15 08:41:48;;;;;;;18.60;2.60;;;;;;;7.66;100.00;100464.03;5424266;26;20073;-73
2024/04/15 08:44:18;;;;;;;11.75;1.83;;;;;;;7.63;100.00;100427.72;5457882;26;19993;-73
2024/04/15 08:46:47;;;;;;;11.57;2.08;;;;;;;7.91;100.00;100453.78;5456456;26;19991;-73
2024/04/15 08:49:13;;;;;;;14.18;2.25;;;;;;;7.66;100.00;100448.78;5425090;26;20034;-72
2024/04/15 08:51:39;;;;;;;11.00;2.03;;;;;;;7.40;100.00;100438.59;5458081;26;20010;-72
2024/04/15 08:54:05;;;;;;;15.00;2.38;;;;;;;7.49;100.00;100442.81;5458481;26;20006;-72
2024/04/15 08:56:31;;;;;;;15.13;1.98;;;;;;;7.70;100.00;100435.84;5458271;26;20013;-72
2024/04/15 08:58:58;;;;;;;11.48;1.70;;;;;;;7.44;100.00;100428.31;5459537;26;20025;-73
2024/04/15 09:01:24;;;;;;;12.93;2.53;;;;;;;7.47;100.00;100439.50;5428574;26;20071;-73
2024/04/15 09:03:49;;;;;;;11.30;2.00;;;;;;;7.15;100.00;100400.63;5461592;26;20417;-72
2024/04/15 09:06:16;;;;;;;15.55;2.30;;;;;;;7.07;100.00;100379.31;5425294;26;19991;-72
2024/04/15 09:08:43;;;;;;;16.45;2.85;;;;;;;7.20;100.00;100395.53;5458673;26;20019;-72
2024/04/15 09:11:09;;;;;;;12.20;2.42;;;;;;;7.33;100.00;100429.66;5435028;26;20010;-73
2024/04/15 09:13:34;;;;;;;9.63;2.28;;;;;;;7.50;100.00;100430.25;5417280;26;20024;-73
2024/04/15 09:16:00;;;;;;;13.05;2.17;;;;;;;7.65;100.00;100416.81;5446536;26;19995;-72
2024/04/15 09:18:25;;;;;;;14.25;3.10;;;;;;;7.79;100.00;100429.34;5429344;26;20002;-73
2024/04/15 09:20:53;;;;;;;14.45;2.17;;;;;;;7.68;100.00;100427.16;5465784;26;20077;-73
2024/04/15 09:23:18;;;;;;;11.68;1.70;;;;;;;7.52;100.00;100422.88;5466673;26;19991;-73
2024/04/15 09:25:44;;;;;;;13.98;2.10;;;;;;;7.44;100.00;100425.66;5402115;26;19995;-73
2024/04/15 09:28:09;;;;;;;14.77;2.30;;;;;;;7.39;100.00;100425.41;5457521;26;20041;-73
2024/04/15 09:30:35;;;;;;;14.38;1.88;;;;;;;7.36;100.00;100426.59;5401910;26;20540;-73
2024/04/15 09:33:00;;;;;;;16.92;2.50;;;;;;;7.30;100.00;100412.09;5427799;26;20006;-73
2024/04/15 09:35:28;;;;;;;14.52;1.77;;;;;;;7.26;100.00;100407.34;5417240;26;20061;-72
2024/04/15 09:37:55;;;;;;;15.35;1.67;;;;;;;7.25;100.00;100416.34;5391833;26;19991;-72
2024/04/15 09:40:25;;;;;;;13.68;3.13;;;;;;;7.31;100.00;100410.25;5363588;26;20030;-72
2024/04/15 09:42:51;;;;;;;11.55;1.90;;;;;;;7.17;100.00;100374.47;5423259;26;19996;-72
2024/04/15 09:45:18;;;;;;;14.68;2.10;;;;;;;7.48;100.00;100397.47;5389975;26;19992;-73
2024/04/15 09:47:46;;;;;;;13.18;1.98;;;;;;;7.64;100.00;100407.13;5388193;26;20359;-72
2024/04/15 09:50:12;;;;;;;12.15;1.83;;;;;;;7.95;100.00;100396.13;5420659;26;20028;-72
2024/04/15 09:52:40;;;;;;;16.15;2.45;;;;;;;8.06;100.00;100381.38;5396672;26;19992;-72
2024/04/15 09:55:07;;;;;;;11.35;1.52;;;;;;;8.35;100.00;100386.56;5388329;26;20006;-72
2024/04/15 09:57:41;;;;;;;5.88;1.92;;;;;;;8.74;100.00;100393.28;5375942;26;19992;-74
2024/04/15 10:00:13;;;;;;;8.15;1.30;;;;;;;8.66;100.00;100377.31;5377149;26;20073;-72
2024/04/15 10:03:01;;;;;;;8.05;1.55;;;;;;;9.17;100.00;100385.00;5414100;26;20497;-72
2024/04/15 10:05:28;;;;;;;8.15;1.25;;;;;;;9.31;100.00;100375.16;5412342;26;20047;-73
2024/04/15 10:07:58;;;;;;;6.82;1.40;;;;;;;9.67;100.00;100384.75;5410714;26;20060;-72
2024/04/15 10:10:26;;;;;;;9.45;1.98;;;;;;;9.78;100.00;100384.97;5410501;26;19992;-71
2024/04/15 10:12:54;;;;;;;8.38;1.63;;;;;;;9.72;100.00;100360.78;5373973;26;20588;-70
2024/04/15 10:15:22;;;;;;;12.18;1.50;;;;;;;9.96;100.00;100387.06;5373293;26;20000;-72
2024/04/15 10:18:13;;;;;;;9.15;1.63;;;;;;;9.89;100.00;100354.81;5373594;26;20370;-70
2024/04/15 10:20:40;;;;;;;9.02;1.48;;;;;;;10.12;100.00;100380.47;5409654;26;20032;-71
2024/04/15 10:23:08;;;;;;;11.25;1.63;;;;;;;10.17;100.00;100383.38;5409957;26;20012;-71
2024/04/15 10:25:38;;;;;;;8.82;1.52;;;;;;;9.99;100.00;100385.84;5411722;26;20087;-71
2024/04/15 10:28:14;;;;;;;11.65;2.05;;;;;;;10.09;100.00;100380.88;5381161;26;20043;-72
2024/04/15 10:30:40;;;;;;;11.20;1.80;;;;;;;10.08;100.00;100374.69;5375283;26;20004;-72
2024/04/15 10:33:12;;;;;;;5.72;1.48;;;;;;;10.05;100.00;100371.56;5376141;26;19999;-72
2024/04/15 10:35:40;;;;;;;7.43;1.83;;;;;;;9.87;100.00;100327.34;5418170;26;19993;-72
2024/04/15 10:38:07;;;;;;;14.25;1.85;;;;;;;10.10;100.00;100369.09;5418070;26;20001;-71
2024/04/15 10:40:37;;;;;;;8.20;1.90;;;;;;;9.98;100.00;100354.63;5374366;26;19993;-71
2024/04/15 10:43:04;;;;;;;9.18;1.48;;;;;;;10.14;100.00;100369.53;5374030;26;20070;-72
2024/04/15 10:45:31;;;;;;;8.02;1.58;;;;;;;10.19;100.00;100362.47;5410167;26;19997;-72
2024/04/15 10:47:57;;;;;;;8.63;1.77;;;;;;;10.22;100.00;100356.69;5373613;26;20004;-72
2024/04/15 10:50:22;;;;;;;10.63;1.92;;;;;;;10.18;100.00;100362.69;5410731;26;20353;-71
2024/04/15 10:52:51;;;;;;;7.45;1.17;;;;;;;10.13;100.00;100365.97;5412737;26;19998;-72
2024/04/15 10:55:19;;;;;;;4.68;1.20;;;;;;;10.15;100.00;100353.16;5455684;26;20364;-72
2024/04/15 10:57:45;;;;;;;8.40;1.80;;;;;;;10.16;100.00;100346.75;5456209;26;20002;-71
2024/04/15 11:00:12;;;;;;;8.75;1.33;;;;;;;10.11;100.00;100351.94;5424249;26;19991;-70
2024/04/15 11:02:40;;;;;;;6.85;1.25;;;;;;;10.15;100.00;100345.09;5457544;26;19999;-72
2024/04/15 11:05:07;;;;;;;9.32;1.33;;;;;;;10.11;100.00;100343.88;5428372;26;19995;-70
2024/04/15 11:07:37;;;;;;;9.40;1.55;;;;;;;10.10;100.00;100340.34;5456854;26;20008;-72
2024/04/15 11:10:04;;;;;;;9.43;1.60;;;;;;;10.07;100.00;100342.63;5429858;26;20003;-72
2024/04/15 11:12:30;;;;;;;11.52;1.88;;;;;;;9.82;100.00;100323.59;5457481;26;19999;-72